Solomon Sea — WDE5022 — position and weather

sailwx.info

Track history (hours):
 
Tides and Currents Weather Stations Pressure Air Temp Water Temp Dewpoint Dewpoint Depression Visibility Wind Speed Wind Dir Waves Ship Positions

Solomon Sea

Owner: Kirby Offshore Marine, LLC, Staten Island, NY. More information available from US FCC via Universal Licensing System and Coast Guard Vessel Documentation Center.

Last reported at 2017-Sep-19 20:30 UTC. Time now 2017-Sep-19 20:27 UTC.
Position N 40°39' W 074°05'.

Length 29 m; draft 3.5 m.

Type: Towing. MMSI: 367360960.

Date/timePositionNaut miles runAvg speedWind from/ knotsBaromVisibWave heightAir tempDewpointWater temp
2017-Sep-19 20:30N 40°39' W 074°05'3 6.2
2017-Sep-19 20:01N 40°38' W 074°09'3 5.0
2017-Sep-19 19:30N 40°41' W 074°08'0 0.0
2017-Sep-19 19:00N 40°41' W 074°08'0 0.5
2017-Sep-19 18:30N 40°41' W 074°09'1 1.1
2017-Sep-19 18:00N 40°41' W 074°08'0 1.0
2017-Sep-19 17:30N 40°42' W 074°08'0 0.7
2017-Sep-19 17:00N 40°41' W 074°08'0 0.0
2017-Sep-19 16:30N 40°41' W 074°08'0 0.0
2017-Sep-19 16:00N 40°41' W 074°08'0 0.0
2017-Sep-19 15:30N 40°41' W 074°08'0 0.0
2017-Sep-19 15:00N 40°41' W 074°08'0 0.0
2017-Sep-19 14:30N 40°41' W 074°08'0 0.8
2017-Sep-19 13:59N 40°41' W 074°08'0 0.0
2017-Sep-19 13:30N 40°41' W 074°08'0 0.9
2017-Sep-19 13:00N 40°41' W 074°08'0 0.0
2017-Sep-19 12:30N 40°41' W 074°08'0 0.0
2017-Sep-19 12:00N 40°41' W 074°08'0 0.0
2017-Sep-19 11:30N 40°41' W 074°08'0 0.0
2017-Sep-19 11:00N 40°41' W 074°08'0 0.0
2017-Sep-19 10:30N 40°41' W 074°08'0 0.0
2017-Sep-19 10:00N 40°41' W 074°08'0 0.0
2017-Sep-19 09:30N 40°41' W 074°08'0 0.0
2017-Sep-19 09:00N 40°41' W 074°08'0 0.0
2017-Sep-19 08:30N 40°41' W 074°08'0 0.0
2017-Sep-19 08:00N 40°41' W 074°08'0 0.8
2017-Sep-19 07:30N 40°41' W 074°08'0 0.6
2017-Sep-19 07:01N 40°41' W 074°09'2 4.2
2017-Sep-19 06:30N 40°39' W 074°08'3 5.9
2017-Sep-19 06:00N 40°39' W 074°04'2 3.4
2017-Sep-19 05:30N 40°41' W 074°05'0 0.0
2017-Sep-19 05:00N 40°41' W 074°05'0 0.0
2017-Sep-19 04:30N 40°41' W 074°05'0 0.0
2017-Sep-19 04:00N 40°41' W 074°05'0 0.0
2017-Sep-19 03:30N 40°41' W 074°05'0 0.0
2017-Sep-19 03:00N 40°41' W 074°05'0 0.0
2017-Sep-19 02:30N 40°41' W 074°05'0 0.0
2017-Sep-19 02:00N 40°41' W 074°05'0 0.1
2017-Sep-19 01:30N 40°41' W 074°05'2 3.7
2017-Sep-19 01:00N 40°39' W 074°05'3 6.2
2017-Sep-19 00:30N 40°39' W 074°09'2 3.4
2017-Sep-19 00:00N 40°41' W 074°08'0 0.9
2017-Sep-18 23:30N 40°41' W 074°08'0 0.0
2017-Sep-18 23:00N 40°41' W 074°08'0 0.0
2017-Sep-18 22:30N 40°41' W 074°08'0 0.0
2017-Sep-18 22:00N 40°41' W 074°08'0 0.0
2017-Sep-18 21:30N 40°41' W 074°08'0 0.0
2017-Sep-18 21:01N 40°41' W 074°08'0 0.0
2017-Sep-18 20:30N 40°41' W 074°08'0 0.0
2017-Sep-18 19:59N 40°41' W 074°08'0 0.0
2017-Sep-18 19:29N 40°41' W 074°08'0 0.0
2017-Sep-18 19:00N 40°41' W 074°08'0 0.0
2017-Sep-18 18:30N 40°41' W 074°08'1 1.8
2017-Sep-18 18:00N 40°42' W 074°09'0 0.1
2017-Sep-18 17:29N 40°42' W 074°09'0 0.0
2017-Sep-18 17:00N 40°42' W 074°09'0 0.0
2017-Sep-18 16:29N 40°42' W 074°09'0 0.0
2017-Sep-18 15:59N 40°42' W 074°09'0 0.0
2017-Sep-18 15:26N 40°42' W 074°09'0 0.0
2017-Sep-18 14:52N 40°42' W 074°09'0 0.0
2017-Sep-18 14:30N 40°42' W 074°09'0 0.0
2017-Sep-18 13:59N 40°42' W 074°09'0 0.0
2017-Sep-18 13:30N 40°42' W 074°09'0 0.0
2017-Sep-18 13:00N 40°42' W 074°09'0 0.0
2017-Sep-18 12:29N 40°42' W 074°09'0 0.0
2017-Sep-18 11:59N 40°42' W 074°09'0 0.0
2017-Sep-18 11:29N 40°42' W 074°09'0 0.0
2017-Sep-18 11:00N 40°42' W 074°09'0 0.0
2017-Sep-18 10:30N 40°42' W 074°09'0 0.0
2017-Sep-18 09:59N 40°42' W 074°09'0 0.0
2017-Sep-18 09:28N 40°42' W 074°09'0 0.0
2017-Sep-18 09:00N 40°42' W 074°09'0 0.0
2017-Sep-18 08:30N 40°42' W 074°09'0 0.0
2017-Sep-18 08:00N 40°42' W 074°09'0 0.0
2017-Sep-18 07:29N 40°42' W 074°09'0 0.0
2017-Sep-18 07:00N 40°42' W 074°09'0 0.0
2017-Sep-18 06:30N 40°42' W 074°09'0 0.0
2017-Sep-18 06:00N 40°42' W 074°09'0 0.0
2017-Sep-18 05:31N 40°42' W 074°09'0 0.0
2017-Sep-18 05:00N 40°42' W 074°09'0 0.0
2017-Sep-18 04:18N 40°42' W 074°09'0 0.0
2017-Sep-18 04:00N 40°42' W 074°09'0 0.0
2017-Sep-18 03:30N 40°42' W 074°09'0 0.0
2017-Sep-18 02:59N 40°42' W 074°09'0 0.0
2017-Sep-18 02:30N 40°42' W 074°09'0 0.0
2017-Sep-18 01:59N 40°42' W 074°09'0 0.0
2017-Sep-18 01:30N 40°42' W 074°09'0 0.0
2017-Sep-18 01:00N 40°42' W 074°09'0 0.0
2017-Sep-18 00:30N 40°42' W 074°09'0 0.0
2017-Sep-18 00:00N 40°42' W 074°09'0 0.0
2017-Sep-17 23:31N 40°42' W 074°09'0 0.0
2017-Sep-17 23:00N 40°42' W 074°09'0 0.0
2017-Sep-17 22:30N 40°42' W 074°09'0 0.0
2017-Sep-17 22:00N 40°42' W 074°09'0 0.0
2017-Sep-17 21:29N 40°42' W 074°09'0 0.0
2017-Sep-17 21:00N 40°42' W 074°09'0 0.0
2017-Sep-17 20:30N 40°42' W 074°09'0 0.0
2017-Sep-17 19:58N 40°42' W 074°09'0 0.0
2017-Sep-17 19:30N 40°42' W 074°09'0 0.0
2017-Sep-17 19:00N 40°42' W 074°09'0 0.0
2017-Sep-17 18:28N 40°42' W 074°09'0 0.0
2017-Sep-17 18:00N 40°42' W 074°09'0 0.0
2017-Sep-17 17:30N 40°42' W 074°09'0 0.0
2017-Sep-17 17:00N 40°42' W 074°09'0 0.0
2017-Sep-17 16:02N 40°42' W 074°09'0 0.0
2017-Sep-17 15:46N 40°42' W 074°09'0 0.0
2017-Sep-17 14:43N 40°42' W 074°09'0 0.0
2017-Sep-17 14:25N 40°42' W 074°09'0 0.0
2017-Sep-17 14:00N 40°42' W 074°09'0 0.0
2017-Sep-17 13:29N 40°42' W 074°09'0 0.0
2017-Sep-17 13:00N 40°42' W 074°09'0 0.0
2017-Sep-17 12:26N 40°42' W 074°09'0 0.0
2017-Sep-17 11:59N 40°42' W 074°09'0 0.0
2017-Sep-17 11:30N 40°42' W 074°09'0 0.0
2017-Sep-17 11:00N 40°42' W 074°09'0 0.0
2017-Sep-17 10:30N 40°42' W 074°09'0 0.0
2017-Sep-17 10:00N 40°42' W 074°09'0 0.0
2017-Sep-17 09:30N 40°42' W 074°09'0 0.0
2017-Sep-17 09:00N 40°42' W 074°09'0 0.0
2017-Sep-17 08:30N 40°42' W 074°09'0 0.0
2017-Sep-17 08:00N 40°42' W 074°09'0 0.0
2017-Sep-17 07:30N 40°42' W 074°09'0 0.0
2017-Sep-17 06:58N 40°42' W 074°09'0 0.0
2017-Sep-17 06:30N 40°42' W 074°09'0 0.0
2017-Sep-17 06:00N 40°42' W 074°09'0 0.0
2017-Sep-17 05:31N 40°42' W 074°09'0 0.0
2017-Sep-17 04:59N 40°42' W 074°09'0 0.0
2017-Sep-17 04:30N 40°42' W 074°09'0 0.0
2017-Sep-17 04:00N 40°42' W 074°09'0 0.0
2017-Sep-17 03:30N 40°42' W 074°09'0 0.0
2017-Sep-17 02:57N 40°42' W 074°09'0 0.0
2017-Sep-17 02:30N 40°42' W 074°09'0 0.0
2017-Sep-17 02:01N 40°42' W 074°09'0 0.0
2017-Sep-17 01:31N 40°42' W 074°09'0 0.0
2017-Sep-17 00:56N 40°42' W 074°09'0 0.0
2017-Sep-17 00:30N 40°42' W 074°09'0 0.0
2017-Sep-17 00:00N 40°42' W 074°09'0 0.0
2017-Sep-16 23:30N 40°42' W 074°09'0 0.0
2017-Sep-16 23:00N 40°42' W 074°09'0 0.0
2017-Sep-16 22:30N 40°42' W 074°09'0 0.0
2017-Sep-16 22:00N 40°42' W 074°09'0 0.0
2017-Sep-16 21:27N 40°42' W 074°09'0 0.0
2017-Sep-16 21:00N 40°42' W 074°09'0 0.0
2017-Sep-16 20:30N 40°42' W 074°09'0 0.0
2017-Sep-16 19:59N 40°42' W 074°09'0 0.0
2017-Sep-16 19:30N 40°42' W 074°09'0 0.0
2017-Sep-16 19:00N 40°42' W 074°09'0 0.0
2017-Sep-16 18:29N 40°42' W 074°09'0 0.0
2017-Sep-16 18:00N 40°42' W 074°09'0 0.0
2017-Sep-16 17:30N 40°42' W 074°09'0 0.0
2017-Sep-16 16:59N 40°42' W 074°09'0 0.0
2017-Sep-16 16:30N 40°42' W 074°09'0 0.0
2017-Sep-16 16:00N 40°42' W 074°09'0 0.0
2017-Sep-16 15:30N 40°42' W 074°09'0 0.0
2017-Sep-16 15:00N 40°42' W 074°09'0 0.0
2017-Sep-16 14:30N 40°42' W 074°09'0 0.0
2017-Sep-16 14:00N 40°42' W 074°09'0 0.0
2017-Sep-16 13:30N 40°42' W 074°09'0 0.0
2017-Sep-16 13:00N 40°42' W 074°09'0 0.0
2017-Sep-16 12:24N 40°42' W 074°09'0 0.0
2017-Sep-16 11:54N 40°42' W 074°09'0 0.0
2017-Sep-16 11:30N 40°42' W 074°09'0 0.0
2017-Sep-16 11:00N 40°42' W 074°09'0 0.0
2017-Sep-16 10:29N 40°42' W 074°09'0 0.0
2017-Sep-16 10:00N 40°42' W 074°09'0 0.0
2017-Sep-16 09:29N 40°42' W 074°09'0 0.0
2017-Sep-16 09:00N 40°42' W 074°09'0 0.0
2017-Sep-16 08:26N 40°42' W 074°09'0 0.0
2017-Sep-16 08:00N 40°42' W 074°09'0 0.0
2017-Sep-16 07:27N 40°42' W 074°09'0 0.0
2017-Sep-16 07:00N 40°42' W 074°09'0 0.0
2017-Sep-16 06:30N 40°42' W 074°09'0 0.0
2017-Sep-16 05:59N 40°42' W 074°09'0 0.0
2017-Sep-16 05:29N 40°42' W 074°09'0 0.0
2017-Sep-16 05:00N 40°42' W 074°09'0 0.0
2017-Sep-16 04:30N 40°42' W 074°09'0 0.0
2017-Sep-16 03:59N 40°42' W 074°09'0 0.0
2017-Sep-16 03:29N 40°42' W 074°09'0 0.0
2017-Sep-16 03:00N 40°42' W 074°09'1 2.2
2017-Sep-16 02:30N 40°41' W 074°08'1 2.0
2017-Sep-16 02:00N 40°40' W 074°08'2 3.3
2017-Sep-16 01:30N 40°39' W 074°07'3 5.8
2017-Sep-16 01:01N 40°40' W 074°04'1 2.3
2017-Sep-16 00:31N 40°41' W 074°05'2 3.2
2017-Sep-16 00:00N 40°41' W 074°02'4 8.1
2017-Sep-15 23:30N 40°44' W 073°58'1 2.4
2017-Sep-15 23:00N 40°44' W 073°57'0 0.1
2017-Sep-15 22:30N 40°44' W 073°57'2 5.1
2017-Sep-15 22:00N 40°42' W 073°59'4 7.8
2017-Sep-15 21:30N 40°40' W 074°03'1 2.4
2017-Sep-15 21:01N 40°41' W 074°05'0 0.1
2017-Sep-15 20:31N 40°41' W 074°05'0 0.0
2017-Sep-15 20:01N 40°41' W 074°05'0 0.0
2017-Sep-15 19:31N 40°41' W 074°05'0 0.0
2017-Sep-15 19:01N 40°41' W 074°05'0 0.0
2017-Sep-15 18:30N 40°41' W 074°05'0 0.0
2017-Sep-15 18:00N 40°41' W 074°05'0 0.0
2017-Sep-15 17:31N 40°41' W 074°05'0 0.0
2017-Sep-15 17:01N 40°41' W 074°05'0 0.0
2017-Sep-15 16:31N 40°41' W 074°05'0 0.2
2017-Sep-15 16:01N 40°41' W 074°05'0 0.0
2017-Sep-15 15:31N 40°41' W 074°05'0 0.0
2017-Sep-15 15:01N 40°41' W 074°05'0 0.0
2017-Sep-15 14:31N 40°41' W 074°05'0 0.0
2017-Sep-15 14:00N 40°41' W 074°05'0 0.0
2017-Sep-15 13:30N 40°41' W 074°05'0 0.0
2017-Sep-15 13:00N 40°41' W 074°05'0 0.0
2017-Sep-15 12:31N 40°41' W 074°05'0 0.0
2017-Sep-15 12:01N 40°41' W 074°05'0 0.0
2017-Sep-15 11:31N 40°41' W 074°05'0 0.0
2017-Sep-15 11:00N 40°41' W 074°05'0 0.0
2017-Sep-15 10:31N 40°41' W 074°05'0 0.0
2017-Sep-15 10:00N 40°41' W 074°05'0 0.0
2017-Sep-15 09:31N 40°41' W 074°05'0 0.0
2017-Sep-15 09:00N 40°41' W 074°05'0 0.0
2017-Sep-15 08:30N 40°41' W 074°05'0 0.0
2017-Sep-15 08:01N 40°41' W 074°05'0 0.0
2017-Sep-15 07:30N 40°41' W 074°05'0 0.0
2017-Sep-15 07:00N 40°41' W 074°05'0 0.0
2017-Sep-15 06:31N 40°41' W 074°05'0 0.0
2017-Sep-15 06:01N 40°41' W 074°05'0 0.0
2017-Sep-15 05:31N 40°41' W 074°05'0 0.0
2017-Sep-15 05:00N 40°41' W 074°05'0 0.0
2017-Sep-15 04:31N 40°41' W 074°05'0 0.0
2017-Sep-15 04:00N 40°41' W 074°05'0 0.0
2017-Sep-15 03:30N 40°41' W 074°05'0 0.0
2017-Sep-15 03:00N 40°41' W 074°05'0 0.0
2017-Sep-15 02:31N 40°41' W 074°05'0 0.0
2017-Sep-15 02:00N 40°41' W 074°05'0 0.0
2017-Sep-15 01:30N 40°41' W 074°05'0 0.0
2017-Sep-15 01:00N 40°41' W 074°05'0 0.0
2017-Sep-15 00:31N 40°41' W 074°05'0 0.3
2017-Sep-15 00:00N 40°41' W 074°04'2 5.0
2017-Sep-14 23:31N 40°42' W 074°01'4 8.0
2017-Sep-14 23:00N 40°44' W 073°57'0 0.8
2017-Sep-14 22:30N 40°44' W 073°57'0 0.1
2017-Sep-14 22:00N 40°44' W 073°57'1 2.5
2017-Sep-14 21:30N 40°44' W 073°58'4 7.1
2017-Sep-14 21:01N 40°41' W 074°01'3 5.1
2017-Sep-14 20:31N 40°41' W 074°05'0 0.0
2017-Sep-14 20:01N 40°41' W 074°05'0 0.0
2017-Sep-14 19:30N 40°41' W 074°05'0 0.0
2017-Sep-14 19:00N 40°41' W 074°05'0 0.0
2017-Sep-14 18:31N 40°41' W 074°05'0 0.0
2017-Sep-14 18:00N 40°41' W 074°05'0 0.0
2017-Sep-14 17:30N 40°41' W 074°05'0 0.0
2017-Sep-14 17:00N 40°41' W 074°05'0 0.0
2017-Sep-14 16:30N 40°41' W 074°05'0 0.0
2017-Sep-14 16:00N 40°41' W 074°05'0 0.0
2017-Sep-14 15:31N 40°41' W 074°05'0 0.0
2017-Sep-14 15:01N 40°41' W 074°05'0 0.0
2017-Sep-14 14:30N 40°41' W 074°05'0 0.0
2017-Sep-14 14:00N 40°41' W 074°05'0 0.1
2017-Sep-14 13:31N 40°41' W 074°05'0 0.0
2017-Sep-14 13:00N 40°41' W 074°05'0 0.0
2017-Sep-14 12:30N 40°41' W 074°05'0 0.1
2017-Sep-14 12:01N 40°41' W 074°05'0 0.2
2017-Sep-14 11:30N 40°41' W 074°05'0 0.0
2017-Sep-14 11:00N 40°41' W 074°05'0 0.0
2017-Sep-14 10:31N 40°41' W 074°05'0 0.0
2017-Sep-14 10:00N 40°41' W 074°05'0 0.0
2017-Sep-14 09:30N 40°41' W 074°05'0 0.0
2017-Sep-14 09:00N 40°41' W 074°05'0 0.0
2017-Sep-14 08:30N 40°41' W 074°05'0 0.1
2017-Sep-14 08:00N 40°41' W 074°05'0 0.0
2017-Sep-14 07:30N 40°41' W 074°05'1 2.6
2017-Sep-14 07:01N 40°41' W 074°03'2 3.3
2017-Sep-14 06:30N 40°42' W 074°02'3 7.0
2017-Sep-14 06:01N 40°45' W 074°01'2 3.9
2017-Sep-14 05:31N 40°43' W 074°01'3 6.7
2017-Sep-14 05:00N 40°41' W 074°04'0 0.6
2017-Sep-14 04:31N 40°41' W 074°05'0 0.0
2017-Sep-14 04:01N 40°41' W 074°05'0 0.0
2017-Sep-14 03:31N 40°41' W 074°05'0 0.0
2017-Sep-14 03:01N 40°41' W 074°05'0 0.0
2017-Sep-14 02:31N 40°41' W 074°05'0 0.0
2017-Sep-14 02:01N 40°41' W 074°05'0 0.0
2017-Sep-14 01:31N 40°41' W 074°05'0 0.0
2017-Sep-14 01:00N 40°41' W 074°05'0 0.0
2017-Sep-14 00:31N 40°41' W 074°05'0 0.0
2017-Sep-14 00:00N 40°41' W 074°05'0 0.0
2017-Sep-13 23:31N 40°41' W 074°05'1 2.3
2017-Sep-13 23:01N 40°40' W 074°04'2 3.8
2017-Sep-13 22:31N 40°39' W 074°05'0 0.0
2017-Sep-13 22:00N 40°39' W 074°05'0 0.0
2017-Sep-13 21:31N 40°39' W 074°05'0 0.0
2017-Sep-13 21:01N 40°39' W 074°05'2 4.5
2017-Sep-13 20:30N 40°40' W 074°08'2 4.0
2017-Sep-13 20:00N 40°42' W 074°09'0 0.0
2017-Sep-13 19:30N 40°42' W 074°09'0 0.0
2017-Sep-13 19:01N 40°42' W 074°09'0 0.1
2017-Sep-13 18:30N 40°42' W 074°09'0 0.2
2017-Sep-13 17:59N 40°42' W 074°09'0 0.0
2017-Sep-13 17:30N 40°42' W 074°09'0 0.0
2017-Sep-13 17:00N 40°42' W 074°09'0 0.0
2017-Sep-13 16:31N 40°42' W 074°09'0 0.0
2017-Sep-13 15:58N 40°42' W 074°09'0 0.0
2017-Sep-13 15:21N 40°42' W 074°09'0 0.0
2017-Sep-13 14:48N 40°42' W 074°09'0 0.0
2017-Sep-13 14:29N 40°42' W 074°09'0 0.0
2017-Sep-13 13:59N 40°42' W 074°09'0 0.0
2017-Sep-13 13:30N 40°42' W 074°09'0 0.0
2017-Sep-13 13:00N 40°42' W 074°09'0 0.0
2017-Sep-13 12:27N 40°42' W 074°09'0 0.0
2017-Sep-13 11:59N 40°42' W 074°09'0 0.0
2017-Sep-13 11:30N 40°42' W 074°09'0 0.0
2017-Sep-13 11:00N 40°42' W 074°09'0 0.0
2017-Sep-13 10:30N 40°42' W 074°09'0 0.0
2017-Sep-13 10:00N 40°42' W 074°09'0 0.0
2017-Sep-13 09:30N 40°42' W 074°09'0 0.0
2017-Sep-13 08:59N 40°42' W 074°09'0 0.0
2017-Sep-13 08:30N 40°42' W 074°09'0 0.0
2017-Sep-13 08:00N 40°42' W 074°09'1 2.5
2017-Sep-13 07:30N 40°41' W 074°08'3 4.9
2017-Sep-13 06:59N 40°39' W 074°07'4 7.3
2017-Sep-13 06:31N 40°40' W 074°03'4 7.1
2017-Sep-13 06:01N 40°43' W 074°02'3 5.6
2017-Sep-13 05:30N 40°46' W 074°00'0 1.0
2017-Sep-13 05:00N 40°46' W 073°60'0 0.0
2017-Sep-13 04:30N 40°46' W 073°60'0 0.0
2017-Sep-13 04:00N 40°46' W 073°60'0 0.0
2017-Sep-13 03:30N 40°46' W 073°60'1 1.3
2017-Sep-13 03:00N 40°46' W 074°00'0 0.0
2017-Sep-13 02:30N 40°46' W 074°00'0 0.0
2017-Sep-13 02:00N 40°46' W 074°00'0 0.0
2017-Sep-13 01:30N 40°46' W 074°00'0 0.0
2017-Sep-13 01:01N 40°46' W 074°00'0 0.0
2017-Sep-13 00:30N 40°46' W 074°00'1 1.2
2017-Sep-13 00:00N 40°46' W 073°60'2 3.6
2017-Sep-12 23:30N 40°45' W 074°01'3 6.5
2017-Sep-12 23:00N 40°42' W 074°02'3 6.9
2017-Sep-12 22:30N 40°39' W 074°05'4 8.6
2017-Sep-12 22:00N 40°39' W 074°11'3 1.5
2017-Sep-12 20:14N 40°36' W 074°12'2 7.5
2017-Sep-12 20:00N 40°38' W 074°12'2 4.2
2017-Sep-12 19:30N 40°39' W 074°09'3 6.2
2017-Sep-12 19:01N 40°39' W 074°05'3 6.0
2017-Sep-12 18:31N 40°41' W 074°02'3 5.9
2017-Sep-12 18:01N 40°44' W 074°01'3 5.3
2017-Sep-12 17:31N 40°46' W 074°00'0 0.7
2017-Sep-12 17:00N 40°46' W 073°60'0 0.2
2017-Sep-12 16:30N 40°46' W 073°60'0 0.0
2017-Sep-12 16:00N 40°46' W 073°60'1 1.3
2017-Sep-12 15:31N 40°46' W 074°00'0 0.2
2017-Sep-12 15:00N 40°46' W 074°00'0 0.2
2017-Sep-12 14:30N 40°46' W 074°00'0 0.7
2017-Sep-12 14:01N 40°46' W 074°01'1 1.0
2017-Sep-12 13:30N 40°45' W 074°01'0 0.7
2017-Sep-12 13:01N 40°46' W 074°01'0 0.6
2017-Sep-12 12:30N 40°45' W 074°01'1 2.0
2017-Sep-12 12:01N 40°44' W 074°01'2 4.8
2017-Sep-12 11:30N 40°42' W 074°02'2 4.8
2017-Sep-12 11:00N 40°40' W 074°03'3 5.3
2017-Sep-12 10:29N 40°39' W 074°06'2 4.2
2017-Sep-12 10:00N 40°39' W 074°09'1 3.0
2017-Sep-12 09:30N 40°41' W 074°09'0 0.0
2017-Sep-12 09:01N 40°41' W 074°09'0 0.0
2017-Sep-12 08:31N 40°41' W 074°09'0 0.0
2017-Sep-12 08:00N 40°41' W 074°09'0 0.0
2017-Sep-12 07:30N 40°41' W 074°09'0 0.0
2017-Sep-12 07:00N 40°41' W 074°09'0 0.0
2017-Sep-12 06:30N 40°41' W 074°09'0 0.0
2017-Sep-12 06:00N 40°41' W 074°09'0 0.0
2017-Sep-12 05:30N 40°41' W 074°09'0 0.0
2017-Sep-12 05:01N 40°41' W 074°09'0 0.0
2017-Sep-12 04:30N 40°41' W 074°09'0 0.0
2017-Sep-12 04:00N 40°41' W 074°09'0 0.0
2017-Sep-12 03:30N 40°41' W 074°09'0 0.0
2017-Sep-12 03:01N 40°41' W 074°09'0 0.0
2017-Sep-12 02:31N 40°41' W 074°09'0 0.0
2017-Sep-12 02:01N 40°41' W 074°09'0 0.0
2017-Sep-12 01:30N 40°41' W 074°09'0 0.0
2017-Sep-12 01:01N 40°41' W 074°09'0 0.0
2017-Sep-12 00:30N 40°41' W 074°09'0 0.0
2017-Sep-12 00:00N 40°41' W 074°09'0 0.0
2017-Sep-11 23:30N 40°41' W 074°09'0 0.2
2017-Sep-11 23:00N 40°41' W 074°09'1 2.2
2017-Sep-11 22:29N 40°42' W 074°09'3 6.3
2017-Sep-11 22:00N 40°44' W 074°06'1 2.7
2017-Sep-11 21:29N 40°45' W 074°05'1 1.0
2017-Sep-11 21:00N 40°44' W 074°05'0 0.2
2017-Sep-11 20:30N 40°44' W 074°05'4 7.2
2017-Sep-11 20:00N 40°41' W 074°08'1 2.4
2017-Sep-11 19:30N 40°42' W 074°09'0 0.0
2017-Sep-11 19:01N 40°42' W 074°09'0 0.0
2017-Sep-11 18:30N 40°42' W 074°09'0 0.0
2017-Sep-11 18:00N 40°42' W 074°09'0 0.0
2017-Sep-11 17:30N 40°42' W 074°09'0 0.2
2017-Sep-11 17:00N 40°42' W 074°09'0 0.0
2017-Sep-11 16:30N 40°42' W 074°09'0 0.1
2017-Sep-11 16:00N 40°42' W 074°09'0 0.1
2017-Sep-11 15:30N 40°42' W 074°09'0 0.0
2017-Sep-11 15:00N 40°42' W 074°09'1 2.4
2017-Sep-11 14:30N 40°41' W 074°09'1 2.3
2017-Sep-11 13:58N 40°42' W 074°09'0 0.1
2017-Sep-11 13:28N 40°42' W 074°09'2 4.6
2017-Sep-11 13:01N 40°40' W 074°08'1 1.4
2017-Sep-11 12:31N 40°41' W 074°08'1 1.7
2017-Sep-11 12:00N 40°41' W 074°08'0 1.0
2017-Sep-11 11:30N 40°42' W 074°09'0 0.6
2017-Sep-11 10:43N 40°42' W 074°09'0 0.0
2017-Sep-11 10:24N 40°42' W 074°09'0 0.0
2017-Sep-11 10:00N 40°42' W 074°09'0 0.0
2017-Sep-11 08:19N 40°42' W 074°09'0 0.0
2017-Sep-11 07:54N 40°42' W 074°09'0 0.0
2017-Sep-11 07:26N 40°42' W 074°09'0 0.0
2017-Sep-11 06:49N 40°42' W 074°09'0 0.0
2017-Sep-11 06:30N 40°42' W 074°09'0 0.0
2017-Sep-11 06:00N 40°42' W 074°09'0 0.0
2017-Sep-11 05:30N 40°42' W 074°09'0 0.0
2017-Sep-11 05:00N 40°42' W 074°09'0 0.0
2017-Sep-11 04:30N 40°42' W 074°09'0 0.0
2017-Sep-11 04:00N 40°42' W 074°09'0 0.0
2017-Sep-11 03:31N 40°42' W 074°09'0 0.0
2017-Sep-11 03:00N 40°42' W 074°09'0 0.0
2017-Sep-11 02:30N 40°42' W 074°09'0 0.0
2017-Sep-11 02:00N 40°42' W 074°09'0 0.0
2017-Sep-11 01:30N 40°42' W 074°09'0 0.0
2017-Sep-11 01:00N 40°42' W 074°09'0 0.0
2017-Sep-11 00:30N 40°42' W 074°09'0 0.0
2017-Sep-11 00:01N 40°42' W 074°09'0 0.0
2017-Sep-10 23:30N 40°42' W 074°09'0 0.0
2017-Sep-10 23:01N 40°42' W 074°09'0 0.0
2017-Sep-10 22:30N 40°42' W 074°09'0 0.0
2017-Sep-10 22:00N 40°42' W 074°09'1 2.2
2017-Sep-10 21:30N 40°41' W 074°08'0 0.9
2017-Sep-10 21:00N 40°41' W 074°09'1 2.1
2017-Sep-10 20:28N 40°40' W 074°09'1 1.7
2017-Sep-10 19:58N 40°39' W 074°09'2 3.7
2017-Sep-10 19:30N 40°39' W 074°07'2 3.8
2017-Sep-10 19:01N 40°39' W 074°04'3 5.3
2017-Sep-10 18:31N 40°41' W 074°02'3 6.6
2017-Sep-10 18:00N 40°43' W 073°58'4 5.2
2017-Sep-10 17:09N 40°47' W 073°55'1 4.2
2017-Sep-10 16:56N 40°48' W 073°55'  
Track history (hours):
 
Tides and Currents Weather Stations Pressure Air Temp Water Temp Dewpoint Dewpoint Depression Visibility Wind Speed Wind Dir Waves Ship Positions

Solomon Sea

Owner: Kirby Offshore Marine, LLC, Staten Island, NY. More information available from US FCC via Universal Licensing System and Coast Guard Vessel Documentation Center.

Last reported at 2017-Sep-19 20:30 UTC. Time now 2017-Sep-19 20:27 UTC.
Position N 40°39' W 074°05'.

Length 29 m; draft 3.5 m.

Type: Towing. MMSI: 367360960.

Date/timePositionNaut miles runAvg speedWind from/ knotsBaromVisibWave heightAir tempDewpointWater temp
2017-Sep-19 20:30N 40°39' W 074°05'3 6.2
2017-Sep-19 20:01N 40°38' W 074°09'3 5.0
2017-Sep-19 19:30N 40°41' W 074°08'0 0.0
2017-Sep-19 19:00N 40°41' W 074°08'0 0.5
2017-Sep-19 18:30N 40°41' W 074°09'1 1.1
2017-Sep-19 18:00N 40°41' W 074°08'0 1.0
2017-Sep-19 17:30N 40°42' W 074°08'0 0.7
2017-Sep-19 17:00N 40°41' W 074°08'0 0.0
2017-Sep-19 16:30N 40°41' W 074°08'0 0.0
2017-Sep-19 16:00N 40°41' W 074°08'0 0.0
2017-Sep-19 15:30N 40°41' W 074°08'0 0.0
2017-Sep-19 15:00N 40°41' W 074°08'0 0.0
2017-Sep-19 14:30N 40°41' W 074°08'0 0.8
2017-Sep-19 13:59N 40°41' W 074°08'0 0.0
2017-Sep-19 13:30N 40°41' W 074°08'0 0.9
2017-Sep-19 13:00N 40°41' W 074°08'0 0.0
2017-Sep-19 12:30N 40°41' W 074°08'0 0.0
2017-Sep-19 12:00N 40°41' W 074°08'0 0.0
2017-Sep-19 11:30N 40°41' W 074°08'0 0.0
2017-Sep-19 11:00N 40°41' W 074°08'0 0.0
2017-Sep-19 10:30N 40°41' W 074°08'0 0.0
2017-Sep-19 10:00N 40°41' W 074°08'0 0.0
2017-Sep-19 09:30N 40°41' W 074°08'0 0.0
2017-Sep-19 09:00N 40°41' W 074°08'0 0.0
2017-Sep-19 08:30N 40°41' W 074°08'0 0.0
2017-Sep-19 08:00N 40°41' W 074°08'0 0.8
2017-Sep-19 07:30N 40°41' W 074°08'0 0.6
2017-Sep-19 07:01N 40°41' W 074°09'2 4.2
2017-Sep-19 06:30N 40°39' W 074°08'3 5.9
2017-Sep-19 06:00N 40°39' W 074°04'2 3.4
2017-Sep-19 05:30N 40°41' W 074°05'0 0.0
2017-Sep-19 05:00N 40°41' W 074°05'0 0.0
2017-Sep-19 04:30N 40°41' W 074°05'0 0.0
2017-Sep-19 04:00N 40°41' W 074°05'0 0.0
2017-Sep-19 03:30N 40°41' W 074°05'0 0.0
2017-Sep-19 03:00N 40°41' W 074°05'0 0.0
2017-Sep-19 02:30N 40°41' W 074°05'0 0.0
2017-Sep-19 02:00N 40°41' W 074°05'0 0.1
2017-Sep-19 01:30N 40°41' W 074°05'2 3.7
2017-Sep-19 01:00N 40°39' W 074°05'3 6.2
2017-Sep-19 00:30N 40°39' W 074°09'2 3.4
2017-Sep-19 00:00N 40°41' W 074°08'0 0.9
2017-Sep-18 23:30N 40°41' W 074°08'0 0.0
2017-Sep-18 23:00N 40°41' W 074°08'0 0.0
2017-Sep-18 22:30N 40°41' W 074°08'0 0.0
2017-Sep-18 22:00N 40°41' W 074°08'0 0.0
2017-Sep-18 21:30N 40°41' W 074°08'0 0.0
2017-Sep-18 21:01N 40°41' W 074°08'0 0.0
2017-Sep-18 20:30N 40°41' W 074°08'0 0.0
2017-Sep-18 19:59N 40°41' W 074°08'0 0.0
2017-Sep-18 19:29N 40°41' W 074°08'0 0.0
2017-Sep-18 19:00N 40°41' W 074°08'0 0.0
2017-Sep-18 18:30N 40°41' W 074°08'1 1.8
2017-Sep-18 18:00N 40°42' W 074°09'0 0.1
2017-Sep-18 17:29N 40°42' W 074°09'0 0.0
2017-Sep-18 17:00N 40°42' W 074°09'0 0.0
2017-Sep-18 16:29N 40°42' W 074°09'0 0.0
2017-Sep-18 15:59N 40°42' W 074°09'0 0.0
2017-Sep-18 15:26N 40°42' W 074°09'0 0.0
2017-Sep-18 14:52N 40°42' W 074°09'0 0.0
2017-Sep-18 14:30N 40°42' W 074°09'0 0.0
2017-Sep-18 13:59N 40°42' W 074°09'0 0.0
2017-Sep-18 13:30N 40°42' W 074°09'0 0.0
2017-Sep-18 13:00N 40°42' W 074°09'0 0.0
2017-Sep-18 12:29N 40°42' W 074°09'0 0.0
2017-Sep-18 11:59N 40°42' W 074°09'0 0.0
2017-Sep-18 11:29N 40°42' W 074°09'0 0.0
2017-Sep-18 11:00N 40°42' W 074°09'0 0.0
2017-Sep-18 10:30N 40°42' W 074°09'0 0.0
2017-Sep-18 09:59N 40°42' W 074°09'0 0.0
2017-Sep-18 09:28N 40°42' W 074°09'0 0.0
2017-Sep-18 09:00N 40°42' W 074°09'0 0.0
2017-Sep-18 08:30N 40°42' W 074°09'0 0.0
2017-Sep-18 08:00N 40°42' W 074°09'0 0.0
2017-Sep-18 07:29N 40°42' W 074°09'0 0.0
2017-Sep-18 07:00N 40°42' W 074°09'0 0.0
2017-Sep-18 06:30N 40°42' W 074°09'0 0.0
2017-Sep-18 06:00N 40°42' W 074°09'0 0.0
2017-Sep-18 05:31N 40°42' W 074°09'0 0.0
2017-Sep-18 05:00N 40°42' W 074°09'0 0.0
2017-Sep-18 04:18N 40°42' W 074°09'0 0.0
2017-Sep-18 04:00N 40°42' W 074°09'0 0.0
2017-Sep-18 03:30N 40°42' W 074°09'0 0.0
2017-Sep-18 02:59N 40°42' W 074°09'0 0.0
2017-Sep-18 02:30N 40°42' W 074°09'0 0.0
2017-Sep-18 01:59N 40°42' W 074°09'0 0.0
2017-Sep-18 01:30N 40°42' W 074°09'0 0.0
2017-Sep-18 01:00N 40°42' W 074°09'0 0.0
2017-Sep-18 00:30N 40°42' W 074°09'0 0.0
2017-Sep-18 00:00N 40°42' W 074°09'0 0.0
2017-Sep-17 23:31N 40°42' W 074°09'0 0.0
2017-Sep-17 23:00N 40°42' W 074°09'0 0.0
2017-Sep-17 22:30N 40°42' W 074°09'0 0.0
2017-Sep-17 22:00N 40°42' W 074°09'0 0.0
2017-Sep-17 21:29N 40°42' W 074°09'0 0.0
2017-Sep-17 21:00N 40°42' W 074°09'0 0.0
2017-Sep-17 20:30N 40°42' W 074°09'0 0.0
2017-Sep-17 19:58N 40°42' W 074°09'0 0.0
2017-Sep-17 19:30N 40°42' W 074°09'0 0.0
2017-Sep-17 19:00N 40°42' W 074°09'0 0.0
2017-Sep-17 18:28N 40°42' W 074°09'0 0.0
2017-Sep-17 18:00N 40°42' W 074°09'0 0.0
2017-Sep-17 17:30N 40°42' W 074°09'0 0.0
2017-Sep-17 17:00N 40°42' W 074°09'0 0.0
2017-Sep-17 16:02N 40°42' W 074°09'0 0.0
2017-Sep-17 15:46N 40°42' W 074°09'0 0.0
2017-Sep-17 14:43N 40°42' W 074°09'0 0.0
2017-Sep-17 14:25N 40°42' W 074°09'0 0.0
2017-Sep-17 14:00N 40°42' W 074°09'0 0.0
2017-Sep-17 13:29N 40°42' W 074°09'0 0.0
2017-Sep-17 13:00N 40°42' W 074°09'0 0.0
2017-Sep-17 12:26N 40°42' W 074°09'0 0.0
2017-Sep-17 11:59N 40°42' W 074°09'0 0.0
2017-Sep-17 11:30N 40°42' W 074°09'0 0.0
2017-Sep-17 11:00N 40°42' W 074°09'0 0.0
2017-Sep-17 10:30N 40°42' W 074°09'0 0.0
2017-Sep-17 10:00N 40°42' W 074°09'0 0.0
2017-Sep-17 09:30N 40°42' W 074°09'0 0.0
2017-Sep-17 09:00N 40°42' W 074°09'0 0.0
2017-Sep-17 08:30N 40°42' W 074°09'0 0.0
2017-Sep-17 08:00N 40°42' W 074°09'0 0.0
2017-Sep-17 07:30N 40°42' W 074°09'0 0.0
2017-Sep-17 06:58N 40°42' W 074°09'0 0.0
2017-Sep-17 06:30N 40°42' W 074°09'0 0.0
2017-Sep-17 06:00N 40°42' W 074°09'0 0.0
2017-Sep-17 05:31N 40°42' W 074°09'0 0.0
2017-Sep-17 04:59N 40°42' W 074°09'0 0.0
2017-Sep-17 04:30N 40°42' W 074°09'0 0.0
2017-Sep-17 04:00N 40°42' W 074°09'0 0.0
2017-Sep-17 03:30N 40°42' W 074°09'0 0.0
2017-Sep-17 02:57N 40°42' W 074°09'0 0.0
2017-Sep-17 02:30N 40°42' W 074°09'0 0.0
2017-Sep-17 02:01N 40°42' W 074°09'0 0.0
2017-Sep-17 01:31N 40°42' W 074°09'0 0.0
2017-Sep-17 00:56N 40°42' W 074°09'0 0.0
2017-Sep-17 00:30N 40°42' W 074°09'0 0.0
2017-Sep-17 00:00N 40°42' W 074°09'0 0.0
2017-Sep-16 23:30N 40°42' W 074°09'0 0.0
2017-Sep-16 23:00N 40°42' W 074°09'0 0.0
2017-Sep-16 22:30N 40°42' W 074°09'0 0.0
2017-Sep-16 22:00N 40°42' W 074°09'0 0.0
2017-Sep-16 21:27N 40°42' W 074°09'0 0.0
2017-Sep-16 21:00N 40°42' W 074°09'0 0.0
2017-Sep-16 20:30N 40°42' W 074°09'0 0.0
2017-Sep-16 19:59N 40°42' W 074°09'0 0.0
2017-Sep-16 19:30N 40°42' W 074°09'0 0.0
2017-Sep-16 19:00N 40°42' W 074°09'0 0.0
2017-Sep-16 18:29N 40°42' W 074°09'0 0.0
2017-Sep-16 18:00N 40°42' W 074°09'0 0.0
2017-Sep-16 17:30N 40°42' W 074°09'0 0.0
2017-Sep-16 16:59N 40°42' W 074°09'0 0.0
2017-Sep-16 16:30N 40°42' W 074°09'0 0.0
2017-Sep-16 16:00N 40°42' W 074°09'0 0.0
2017-Sep-16 15:30N 40°42' W 074°09'0 0.0
2017-Sep-16 15:00N 40°42' W 074°09'0 0.0
2017-Sep-16 14:30N 40°42' W 074°09'0 0.0
2017-Sep-16 14:00N 40°42' W 074°09'0 0.0
2017-Sep-16 13:30N 40°42' W 074°09'0 0.0
2017-Sep-16 13:00N 40°42' W 074°09'0 0.0
2017-Sep-16 12:24N 40°42' W 074°09'0 0.0
2017-Sep-16 11:54N 40°42' W 074°09'0 0.0
2017-Sep-16 11:30N 40°42' W 074°09'0 0.0
2017-Sep-16 11:00N 40°42' W 074°09'0 0.0
2017-Sep-16 10:29N 40°42' W 074°09'0 0.0
2017-Sep-16 10:00N 40°42' W 074°09'0 0.0
2017-Sep-16 09:29N 40°42' W 074°09'0 0.0
2017-Sep-16 09:00N 40°42' W 074°09'0 0.0
2017-Sep-16 08:26N 40°42' W 074°09'0 0.0
2017-Sep-16 08:00N 40°42' W 074°09'0 0.0
2017-Sep-16 07:27N 40°42' W 074°09'0 0.0
2017-Sep-16 07:00N 40°42' W 074°09'0 0.0
2017-Sep-16 06:30N 40°42' W 074°09'0 0.0
2017-Sep-16 05:59N 40°42' W 074°09'0 0.0
2017-Sep-16 05:29N 40°42' W 074°09'0 0.0
2017-Sep-16 05:00N 40°42' W 074°09'0 0.0
2017-Sep-16 04:30N 40°42' W 074°09'0 0.0
2017-Sep-16 03:59N 40°42' W 074°09'0 0.0
2017-Sep-16 03:29N 40°42' W 074°09'0 0.0
2017-Sep-16 03:00N 40°42' W 074°09'1 2.2
2017-Sep-16 02:30N 40°41' W 074°08'1 2.0
2017-Sep-16 02:00N 40°40' W 074°08'2 3.3
2017-Sep-16 01:30N 40°39' W 074°07'3 5.8
2017-Sep-16 01:01N 40°40' W 074°04'1 2.3
2017-Sep-16 00:31N 40°41' W 074°05'2 3.2
2017-Sep-16 00:00N 40°41' W 074°02'4 8.1
2017-Sep-15 23:30N 40°44' W 073°58'1 2.4
2017-Sep-15 23:00N 40°44' W 073°57'0 0.1
2017-Sep-15 22:30N 40°44' W 073°57'2 5.1
2017-Sep-15 22:00N 40°42' W 073°59'4 7.8
2017-Sep-15 21:30N 40°40' W 074°03'1 2.4
2017-Sep-15 21:01N 40°41' W 074°05'0 0.1
2017-Sep-15 20:31N 40°41' W 074°05'0 0.0
2017-Sep-15 20:01N 40°41' W 074°05'0 0.0
2017-Sep-15 19:31N 40°41' W 074°05'0 0.0
2017-Sep-15 19:01N 40°41' W 074°05'0 0.0
2017-Sep-15 18:30N 40°41' W 074°05'0 0.0
2017-Sep-15 18:00N 40°41' W 074°05'0 0.0
2017-Sep-15 17:31N 40°41' W 074°05'0 0.0
2017-Sep-15 17:01N 40°41' W 074°05'0 0.0
2017-Sep-15 16:31N 40°41' W 074°05'0 0.2
2017-Sep-15 16:01N 40°41' W 074°05'0 0.0
2017-Sep-15 15:31N 40°41' W 074°05'0 0.0
2017-Sep-15 15:01N 40°41' W 074°05'0 0.0
2017-Sep-15 14:31N 40°41' W 074°05'0 0.0
2017-Sep-15 14:00N 40°41' W 074°05'0 0.0
2017-Sep-15 13:30N 40°41' W 074°05'0 0.0
2017-Sep-15 13:00N 40°41' W 074°05'0 0.0
2017-Sep-15 12:31N 40°41' W 074°05'0 0.0
2017-Sep-15 12:01N 40°41' W 074°05'0 0.0
2017-Sep-15 11:31N 40°41' W 074°05'0 0.0
2017-Sep-15 11:00N 40°41' W 074°05'0 0.0
2017-Sep-15 10:31N 40°41' W 074°05'0 0.0
2017-Sep-15 10:00N 40°41' W 074°05'0 0.0
2017-Sep-15 09:31N 40°41' W 074°05'0 0.0
2017-Sep-15 09:00N 40°41' W 074°05'0 0.0
2017-Sep-15 08:30N 40°41' W 074°05'0 0.0
2017-Sep-15 08:01N 40°41' W 074°05'0 0.0
2017-Sep-15 07:30N 40°41' W 074°05'0 0.0
2017-Sep-15 07:00N 40°41' W 074°05'0 0.0
2017-Sep-15 06:31N 40°41' W 074°05'0 0.0
2017-Sep-15 06:01N 40°41' W 074°05'0 0.0
2017-Sep-15 05:31N 40°41' W 074°05'0 0.0
2017-Sep-15 05:00N 40°41' W 074°05'0 0.0
2017-Sep-15 04:31N 40°41' W 074°05'0 0.0
2017-Sep-15 04:00N 40°41' W 074°05'0 0.0
2017-Sep-15 03:30N 40°41' W 074°05'0 0.0
2017-Sep-15 03:00N 40°41' W 074°05'0 0.0
2017-Sep-15 02:31N 40°41' W 074°05'0 0.0
2017-Sep-15 02:00N 40°41' W 074°05'0 0.0
2017-Sep-15 01:30N 40°41' W 074°05'0 0.0
2017-Sep-15 01:00N 40°41' W 074°05'0 0.0
2017-Sep-15 00:31N 40°41' W 074°05'0 0.3
2017-Sep-15 00:00N 40°41' W 074°04'2 5.0
2017-Sep-14 23:31N 40°42' W 074°01'4 8.0
2017-Sep-14 23:00N 40°44' W 073°57'0 0.8
2017-Sep-14 22:30N 40°44' W 073°57'0 0.1
2017-Sep-14 22:00N 40°44' W 073°57'1 2.5
2017-Sep-14 21:30N 40°44' W 073°58'4 7.1
2017-Sep-14 21:01N 40°41' W 074°01'3 5.1
2017-Sep-14 20:31N 40°41' W 074°05'0 0.0
2017-Sep-14 20:01N 40°41' W 074°05'0 0.0
2017-Sep-14 19:30N 40°41' W 074°05'0 0.0
2017-Sep-14 19:00N 40°41' W 074°05'0 0.0
2017-Sep-14 18:31N 40°41' W 074°05'0 0.0
2017-Sep-14 18:00N 40°41' W 074°05'0 0.0
2017-Sep-14 17:30N 40°41' W 074°05'0 0.0
2017-Sep-14 17:00N 40°41' W 074°05'0 0.0
2017-Sep-14 16:30N 40°41' W 074°05'0 0.0
2017-Sep-14 16:00N 40°41' W 074°05'0 0.0
2017-Sep-14 15:31N 40°41' W 074°05'0 0.0
2017-Sep-14 15:01N 40°41' W 074°05'0 0.0
2017-Sep-14 14:30N 40°41' W 074°05'0 0.0
2017-Sep-14 14:00N 40°41' W 074°05'0 0.1
2017-Sep-14 13:31N 40°41' W 074°05'0 0.0
2017-Sep-14 13:00N 40°41' W 074°05'0 0.0
2017-Sep-14 12:30N 40°41' W 074°05'0 0.1
2017-Sep-14 12:01N 40°41' W 074°05'0 0.2
2017-Sep-14 11:30N 40°41' W 074°05'0 0.0
2017-Sep-14 11:00N 40°41' W 074°05'0 0.0
2017-Sep-14 10:31N 40°41' W 074°05'0 0.0
2017-Sep-14 10:00N 40°41' W 074°05'0 0.0
2017-Sep-14 09:30N 40°41' W 074°05'0 0.0
2017-Sep-14 09:00N 40°41' W 074°05'0 0.0
2017-Sep-14 08:30N 40°41' W 074°05'0 0.1
2017-Sep-14 08:00N 40°41' W 074°05'0 0.0
2017-Sep-14 07:30N 40°41' W 074°05'1 2.6
2017-Sep-14 07:01N 40°41' W 074°03'2 3.3
2017-Sep-14 06:30N 40°42' W 074°02'3 7.0
2017-Sep-14 06:01N 40°45' W 074°01'2 3.9
2017-Sep-14 05:31N 40°43' W 074°01'3 6.7
2017-Sep-14 05:00N 40°41' W 074°04'0 0.6
2017-Sep-14 04:31N 40°41' W 074°05'0 0.0
2017-Sep-14 04:01N 40°41' W 074°05'0 0.0
2017-Sep-14 03:31N 40°41' W 074°05'0 0.0
2017-Sep-14 03:01N 40°41' W 074°05'0 0.0
2017-Sep-14 02:31N 40°41' W 074°05'0 0.0
2017-Sep-14 02:01N 40°41' W 074°05'0 0.0
2017-Sep-14 01:31N 40°41' W 074°05'0 0.0
2017-Sep-14 01:00N 40°41' W 074°05'0 0.0
2017-Sep-14 00:31N 40°41' W 074°05'0 0.0
2017-Sep-14 00:00N 40°41' W 074°05'0 0.0
2017-Sep-13 23:31N 40°41' W 074°05'1 2.3
2017-Sep-13 23:01N 40°40' W 074°04'2 3.8
2017-Sep-13 22:31N 40°39' W 074°05'0 0.0
2017-Sep-13 22:00N 40°39' W 074°05'0 0.0
2017-Sep-13 21:31N 40°39' W 074°05'0 0.0
2017-Sep-13 21:01N 40°39' W 074°05'2 4.5
2017-Sep-13 20:30N 40°40' W 074°08'2 4.0
2017-Sep-13 20:00N 40°42' W 074°09'0 0.0
2017-Sep-13 19:30N 40°42' W 074°09'0 0.0
2017-Sep-13 19:01N 40°42' W 074°09'0 0.1
2017-Sep-13 18:30N 40°42' W 074°09'0 0.2
2017-Sep-13 17:59N 40°42' W 074°09'0 0.0
2017-Sep-13 17:30N 40°42' W 074°09'0 0.0
2017-Sep-13 17:00N 40°42' W 074°09'0 0.0
2017-Sep-13 16:31N 40°42' W 074°09'0 0.0
2017-Sep-13 15:58N 40°42' W 074°09'0 0.0
2017-Sep-13 15:21N 40°42' W 074°09'0 0.0
2017-Sep-13 14:48N 40°42' W 074°09'0 0.0
2017-Sep-13 14:29N 40°42' W 074°09'0 0.0
2017-Sep-13 13:59N 40°42' W 074°09'0 0.0
2017-Sep-13 13:30N 40°42' W 074°09'0 0.0
2017-Sep-13 13:00N 40°42' W 074°09'0 0.0
2017-Sep-13 12:27N 40°42' W 074°09'0 0.0
2017-Sep-13 11:59N 40°42' W 074°09'0 0.0
2017-Sep-13 11:30N 40°42' W 074°09'0 0.0
2017-Sep-13 11:00N 40°42' W 074°09'0 0.0
2017-Sep-13 10:30N 40°42' W 074°09'0 0.0
2017-Sep-13 10:00N 40°42' W 074°09'0 0.0
2017-Sep-13 09:30N 40°42' W 074°09'0 0.0
2017-Sep-13 08:59N 40°42' W 074°09'0 0.0
2017-Sep-13 08:30N 40°42' W 074°09'0 0.0
2017-Sep-13 08:00N 40°42' W 074°09'1 2.5
2017-Sep-13 07:30N 40°41' W 074°08'3 4.9
2017-Sep-13 06:59N 40°39' W 074°07'4 7.3
2017-Sep-13 06:31N 40°40' W 074°03'4 7.1
2017-Sep-13 06:01N 40°43' W 074°02'3 5.6
2017-Sep-13 05:30N 40°46' W 074°00'0 1.0
2017-Sep-13 05:00N 40°46' W 073°60'0 0.0
2017-Sep-13 04:30N 40°46' W 073°60'0 0.0
2017-Sep-13 04:00N 40°46' W 073°60'0 0.0
2017-Sep-13 03:30N 40°46' W 073°60'1 1.3
2017-Sep-13 03:00N 40°46' W 074°00'0 0.0
2017-Sep-13 02:30N 40°46' W 074°00'0 0.0
2017-Sep-13 02:00N 40°46' W 074°00'0 0.0
2017-Sep-13 01:30N 40°46' W 074°00'0 0.0
2017-Sep-13 01:01N 40°46' W 074°00'0 0.0
2017-Sep-13 00:30N 40°46' W 074°00'1 1.2
2017-Sep-13 00:00N 40°46' W 073°60'2 3.6
2017-Sep-12 23:30N 40°45' W 074°01'3 6.5
2017-Sep-12 23:00N 40°42' W 074°02'3 6.9
2017-Sep-12 22:30N 40°39' W 074°05'4 8.6
2017-Sep-12 22:00N 40°39' W 074°11'3 1.5
2017-Sep-12 20:14N 40°36' W 074°12'2 7.5
2017-Sep-12 20:00N 40°38' W 074°12'2 4.2
2017-Sep-12 19:30N 40°39' W 074°09'3 6.2
2017-Sep-12 19:01N 40°39' W 074°05'3 6.0
2017-Sep-12 18:31N 40°41' W 074°02'3 5.9
2017-Sep-12 18:01N 40°44' W 074°01'3 5.3
2017-Sep-12 17:31N 40°46' W 074°00'0 0.7
2017-Sep-12 17:00N 40°46' W 073°60'0 0.2
2017-Sep-12 16:30N 40°46' W 073°60'0 0.0
2017-Sep-12 16:00N 40°46' W 073°60'1 1.3
2017-Sep-12 15:31N 40°46' W 074°00'0 0.2
2017-Sep-12 15:00N 40°46' W 074°00'0 0.2
2017-Sep-12 14:30N 40°46' W 074°00'0 0.7
2017-Sep-12 14:01N 40°46' W 074°01'1 1.0
2017-Sep-12 13:30N 40°45' W 074°01'0 0.7
2017-Sep-12 13:01N 40°46' W 074°01'0 0.6
2017-Sep-12 12:30N 40°45' W 074°01'1 2.0
2017-Sep-12 12:01N 40°44' W 074°01'2 4.8
2017-Sep-12 11:30N 40°42' W 074°02'2 4.8
2017-Sep-12 11:00N 40°40' W 074°03'3 5.3
2017-Sep-12 10:29N 40°39' W 074°06'2 4.2
2017-Sep-12 10:00N 40°39' W 074°09'1 3.0
2017-Sep-12 09:30N 40°41' W 074°09'0 0.0
2017-Sep-12 09:01N 40°41' W 074°09'0 0.0
2017-Sep-12 08:31N 40°41' W 074°09'0 0.0
2017-Sep-12 08:00N 40°41' W 074°09'0 0.0
2017-Sep-12 07:30N 40°41' W 074°09'0 0.0
2017-Sep-12 07:00N 40°41' W 074°09'0 0.0
2017-Sep-12 06:30N 40°41' W 074°09'0 0.0
2017-Sep-12 06:00N 40°41' W 074°09'0 0.0
2017-Sep-12 05:30N 40°41' W 074°09'0 0.0
2017-Sep-12 05:01N 40°41' W 074°09'0 0.0
2017-Sep-12 04:30N 40°41' W 074°09'0 0.0
2017-Sep-12 04:00N 40°41' W 074°09'0 0.0
2017-Sep-12 03:30N 40°41' W 074°09'0 0.0
2017-Sep-12 03:01N 40°41' W 074°09'0 0.0
2017-Sep-12 02:31N 40°41' W 074°09'0 0.0
2017-Sep-12 02:01N 40°41' W 074°09'0 0.0
2017-Sep-12 01:30N 40°41' W 074°09'0 0.0
2017-Sep-12 01:01N 40°41' W 074°09'0 0.0
2017-Sep-12 00:30N 40°41' W 074°09'0 0.0
2017-Sep-12 00:00N 40°41' W 074°09'0 0.0
2017-Sep-11 23:30N 40°41' W 074°09'0 0.2
2017-Sep-11 23:00N 40°41' W 074°09'1 2.2
2017-Sep-11 22:29N 40°42' W 074°09'3 6.3
2017-Sep-11 22:00N 40°44' W 074°06'1 2.7
2017-Sep-11 21:29N 40°45' W 074°05'1 1.0
2017-Sep-11 21:00N 40°44' W 074°05'0 0.2
2017-Sep-11 20:30N 40°44' W 074°05'4 7.2
2017-Sep-11 20:00N 40°41' W 074°08'1 2.4
2017-Sep-11 19:30N 40°42' W 074°09'0 0.0
2017-Sep-11 19:01N 40°42' W 074°09'0 0.0
2017-Sep-11 18:30N 40°42' W 074°09'0 0.0
2017-Sep-11 18:00N 40°42' W 074°09'0 0.0
2017-Sep-11 17:30N 40°42' W 074°09'0 0.2
2017-Sep-11 17:00N 40°42' W 074°09'0 0.0
2017-Sep-11 16:30N 40°42' W 074°09'0 0.1
2017-Sep-11 16:00N 40°42' W 074°09'0 0.1
2017-Sep-11 15:30N 40°42' W 074°09'0 0.0
2017-Sep-11 15:00N 40°42' W 074°09'1 2.4
2017-Sep-11 14:30N 40°41' W 074°09'1 2.3
2017-Sep-11 13:58N 40°42' W 074°09'0 0.1
2017-Sep-11 13:28N 40°42' W 074°09'2 4.6
2017-Sep-11 13:01N 40°40' W 074°08'1 1.4
2017-Sep-11 12:31N 40°41' W 074°08'1 1.7
2017-Sep-11 12:00N 40°41' W 074°08'0 1.0
2017-Sep-11 11:30N 40°42' W 074°09'0 0.6
2017-Sep-11 10:43N 40°42' W 074°09'0 0.0
2017-Sep-11 10:24N 40°42' W 074°09'0 0.0
2017-Sep-11 10:00N 40°42' W 074°09'0 0.0
2017-Sep-11 08:19N 40°42' W 074°09'0 0.0
2017-Sep-11 07:54N 40°42' W 074°09'0 0.0
2017-Sep-11 07:26N 40°42' W 074°09'0 0.0
2017-Sep-11 06:49N 40°42' W 074°09'0 0.0
2017-Sep-11 06:30N 40°42' W 074°09'0 0.0
2017-Sep-11 06:00N 40°42' W 074°09'0 0.0
2017-Sep-11 05:30N 40°42' W 074°09'0 0.0
2017-Sep-11 05:00N 40°42' W 074°09'0 0.0
2017-Sep-11 04:30N 40°42' W 074°09'0 0.0
2017-Sep-11 04:00N 40°42' W 074°09'0 0.0
2017-Sep-11 03:31N 40°42' W 074°09'0 0.0
2017-Sep-11 03:00N 40°42' W 074°09'0 0.0
2017-Sep-11 02:30N 40°42' W 074°09'0 0.0
2017-Sep-11 02:00N 40°42' W 074°09'0 0.0
2017-Sep-11 01:30N 40°42' W 074°09'0 0.0
2017-Sep-11 01:00N 40°42' W 074°09'0 0.0
2017-Sep-11 00:30N 40°42' W 074°09'0 0.0
2017-Sep-11 00:01N 40°42' W 074°09'0 0.0
2017-Sep-10 23:30N 40°42' W 074°09'0 0.0
2017-Sep-10 23:01N 40°42' W 074°09'0 0.0
2017-Sep-10 22:30N 40°42' W 074°09'0 0.0
2017-Sep-10 22:00N 40°42' W 074°09'1 2.2
2017-Sep-10 21:30N 40°41' W 074°08'0 0.9
2017-Sep-10 21:00N 40°41' W 074°09'1 2.1
2017-Sep-10 20:28N 40°40' W 074°09'1 1.7
2017-Sep-10 19:58N 40°39' W 074°09'2 3.7
2017-Sep-10 19:30N 40°39' W 074°07'2 3.8
2017-Sep-10 19:01N 40°39' W 074°04'3 5.3
2017-Sep-10 18:31N 40°41' W 074°02'3 6.6
2017-Sep-10 18:00N 40°43' W 073°58'4 5.2
2017-Sep-10 17:09N 40°47' W 073°55'1 4.2
2017-Sep-10 16:56N 40°48' W 073°55'  

Dump ship's entire track history